Time;durP1;ratioP1;P1;durP2;ratioP2;P2;SDS_P1;SDS_P2;PMS_P1;PMS_P2;Temp;Humidity;BMP_temperature;BMP_pressure;BME280_temperature;BME280_humidity;BME280_pressure;Samples;Min_cycle;Max_cycle;Signal;HPM_P1;HPM_P2
2021/09/30 00:00:33;;;;;;;2.20;0.80;;;9.90;99.90;;;;;;5045614;28;20288;-68
2021/09/30 00:02:59;;;;;;;0.70;0.60;;;9.90;99.90;;;;;;5044032;28;20198;-67
2021/09/30 00:05:25;;;;;;;1.00;0.70;;;10.00;99.90;;;;;;5045764;28;20261;-68
2021/09/30 00:07:51;;;;;;;0.83;0.80;;;10.00;99.90;;;;;;5045834;28;20183;-70
2021/09/30 00:10:20;;;;;;;2.43;1.00;;;10.00;99.90;;;;;;5045133;28;20232;-67
2021/09/30 00:13:36;;;;;;;2.70;1.20;;;10.10;99.90;;;;;;5044952;28;20410;-69
2021/09/30 01:45:31;;;;;;;1.07;0.53;;;9.30;99.90;;;;;;5044441;28;20289;-67
2021/09/30 01:52:10;;;;;;;1.40;0.60;;;9.30;99.90;;;;;;5043589;28;20208;-70
2021/09/30 02:30:03;;;;;;;1.00;0.60;;;9.50;99.90;;;;;;5047899;28;20292;-67
2021/09/30 03:00:04;;;;;;;1.63;0.63;;;9.60;99.90;;;;;;5047282;28;20739;-66
2021/09/30 03:02:31;;;;;;;2.90;0.90;;;9.60;99.90;;;;;;5046025;28;20297;-67
2021/09/30 03:04:59;;;;;;;2.10;0.80;;;9.70;99.90;;;;;;5047181;28;20448;-66
2021/09/30 03:07:25;;;;;;;1.13;0.60;;;9.70;99.90;;;;;;5046959;28;20189;-67
2021/09/30 03:09:53;;;;;;;2.80;0.60;;;9.70;99.90;;;;;;5046899;28;20294;-67
2021/09/30 03:12:28;;;;;;;1.50;0.53;;;9.60;99.90;;;;;;5046012;28;20292;-68
2021/09/30 03:15:08;;;;;;;1.03;0.60;;;9.70;99.90;;;;;;5047196;28;20186;-67
2021/09/30 03:17:54;;;;;;;1.00;0.60;;;9.70;99.90;;;;;;5048673;28;20178;-66
2021/09/30 03:22:54;;;;;;;1.20;0.80;;;9.70;99.90;;;;;;5045945;28;20265;-67
2021/09/30 03:25:20;;;;;;;0.90;0.50;;;9.60;99.90;;;;;;5046821;28;20548;-67
2021/09/30 03:27:45;;;;;;;0.63;0.60;;;9.70;99.90;;;;;;5046382;28;20453;-69
2021/09/30 03:30:11;;;;;;;1.50;0.63;;;9.70;99.90;;;;;;5046488;28;20209;-70
2021/09/30 03:32:38;;;;;;;2.70;0.77;;;9.70;99.90;;;;;;5044732;28;20210;-68
2021/09/30 03:35:04;;;;;;;0.63;0.60;;;9.60;99.90;;;;;;5046487;28;20672;-67
2021/09/30 03:37:30;;;;;;;1.10;0.60;;;9.60;99.90;;;;;;5046395;28;20174;-69
2021/09/30 03:39:55;;;;;;;2.30;0.70;;;9.60;99.90;;;;;;5046488;28;20714;-67
2021/09/30 03:42:21;;;;;;;0.87;0.60;;;9.60;99.90;;;;;;5045423;28;20206;-69
2021/09/30 03:44:47;;;;;;;1.47;0.77;;;9.60;99.90;;;;;;5046426;28;20552;-70
2021/09/30 03:47:14;;;;;;;1.47;0.70;;;9.70;99.90;;;;;;5045857;28;20316;-69
2021/09/30 03:49:39;;;;;;;1.70;0.70;;;9.70;99.90;;;;;;5046068;28;20344;-69
2021/09/30 03:52:13;;;;;;;0.60;0.60;;;9.60;99.90;;;;;;5045525;28;20737;-69
2021/09/30 03:54:44;;;;;;;2.47;1.17;;;9.60;99.90;;;;;;5044962;28;20254;-70
2021/09/30 03:59:41;;;;;;;1.43;0.70;;;9.60;99.90;;;;;;5045812;28;20178;-69
2021/09/30 04:02:06;;;;;;;0.73;0.70;;;9.50;99.90;;;;;;5044988;28;20201;-68
2021/09/30 04:04:34;;;;;;;1.97;0.90;;;9.50;99.90;;;;;;5045901;28;20182;-68
2021/09/30 04:07:03;;;;;;;2.33;1.00;;;9.40;99.90;;;;;;5045327;28;20617;-70
2021/09/30 04:09:30;;;;;;;1.10;0.80;;;9.40;99.90;;;;;;5045769;28;20259;-68
2021/09/30 04:11:58;;;;;;;1.77;0.77;;;9.40;99.90;;;;;;5044738;28;20198;-68
2021/09/30 04:14:24;;;;;;;1.00;0.90;;;9.40;99.90;;;;;;5045971;28;20182;-64
2021/09/30 04:16:50;;;;;;;2.13;1.03;;;9.40;99.90;;;;;;5045199;28;20182;-70
2021/09/30 04:19:17;;;;;;;0.93;0.70;;;9.40;99.90;;;;;;5045900;28;20186;-69
2021/09/30 04:21:43;;;;;;;2.30;1.00;;;9.30;99.90;;;;;;5044353;28;20665;-67
2021/09/30 04:24:09;;;;;;;2.17;1.10;;;9.30;99.90;;;;;;5045740;28;20703;-68
2021/09/30 04:26:35;;;;;;;2.17;1.10;;;9.30;99.90;;;;;;5045157;28;20186;-71
2021/09/30 04:29:00;;;;;;;2.67;1.17;;;9.30;99.90;;;;;;5045065;28;20284;-69
2021/09/30 04:31:26;;;;;;;3.60;1.07;;;9.30;99.90;;;;;;5045115;28;20201;-67
2021/09/30 04:33:52;;;;;;;1.57;0.90;;;9.30;99.90;;;;;;5044869;28;20177;-67
2021/09/30 04:36:18;;;;;;;2.10;1.00;;;9.30;99.90;;;;;;5045812;28;20560;-69
2021/09/30 04:38:45;;;;;;;4.37;1.10;;;9.30;99.90;;;;;;5045171;28;20272;-68
2021/09/30 04:41:12;;;;;;;1.93;1.27;;;9.20;99.90;;;;;;5045376;28;20197;-68
2021/09/30 04:43:38;;;;;;;1.77;1.13;;;9.20;99.90;;;;;;5044456;28;20174;-69
2021/09/30 04:46:05;;;;;;;1.00;0.87;;;9.20;99.90;;;;;;5045322;28;20174;-69
2021/09/30 04:48:30;;;;;;;2.43;1.20;;;9.20;99.90;;;;;;5044586;28;20277;-68
2021/09/30 04:50:56;;;;;;;1.53;1.07;;;9.10;99.90;;;;;;5043724;28;20342;-67
2021/09/30 04:53:22;;;;;;;2.40;1.30;;;9.10;99.90;;;;;;5044166;28;20185;-66
2021/09/30 04:55:47;;;;;;;1.60;1.20;;;9.00;99.90;;;;;;5043962;28;20258;-68
2021/09/30 04:58:13;;;;;;;3.07;1.50;;;9.10;99.90;;;;;;5044538;28;20174;-67
2021/09/30 05:00:38;;;;;;;3.43;1.30;;;9.10;99.90;;;;;;5044927;28;20562;-69
2021/09/30 05:03:04;;;;;;;3.07;1.63;;;9.10;99.90;;;;;;5044111;28;20311;-67
2021/09/30 05:05:30;;;;;;;1.63;1.20;;;9.10;99.90;;;;;;5045308;28;20187;-70
2021/09/30 05:07:55;;;;;;;1.87;1.43;;;9.10;99.90;;;;;;5044293;28;20273;-69
2021/09/30 05:10:22;;;;;;;2.37;1.30;;;9.10;99.90;;;;;;5044959;28;20198;-67
2021/09/30 05:12:49;;;;;;;1.83;1.20;;;9.10;99.90;;;;;;5043526;28;20557;-66
2021/09/30 05:15:15;;;;;;;5.23;1.50;;;9.10;99.90;;;;;;5044936;28;20190;-66
2021/09/30 05:17:40;;;;;;;5.43;1.60;;;9.00;99.90;;;;;;5044280;28;20533;-65
2021/09/30 05:20:07;;;;;;;1.27;1.10;;;9.00;99.90;;;;;;5044678;28;20182;-65
2021/09/30 05:22:32;;;;;;;2.03;1.30;;;9.00;99.90;;;;;;5043573;28;20209;-67
2021/09/30 05:24:58;;;;;;;1.73;1.27;;;9.00;99.90;;;;;;5041086;28;20557;-68
2021/09/30 05:27:24;;;;;;;1.60;1.33;;;8.90;99.90;;;;;;5044544;28;20214;-67
2021/09/30 05:29:49;;;;;;;2.17;1.37;;;8.90;99.90;;;;;;5044404;28;20732;-67
2021/09/30 05:32:15;;;;;;;2.40;1.20;;;8.80;99.90;;;;;;5038561;28;20275;-68
2021/09/30 05:34:43;;;;;;;3.97;1.47;;;8.90;99.90;;;;;;5043510;28;20224;-70
2021/09/30 05:37:08;;;;;;;2.37;1.50;;;8.90;99.90;;;;;;5042785;28;20253;-66
2021/09/30 05:39:34;;;;;;;2.57;1.57;;;8.90;99.90;;;;;;5044137;28;20269;-69
2021/09/30 05:41:59;;;;;;;1.80;1.30;;;8.90;99.90;;;;;;5042488;28;20206;-68
2021/09/30 05:44:26;;;;;;;1.60;1.50;;;8.90;99.90;;;;;;5043873;28;20171;-67
2021/09/30 05:46:55;;;;;;;2.00;1.80;;;8.80;99.90;;;;;;5043659;28;20178;-69
2021/09/30 05:49:24;;;;;;;3.40;1.50;;;8.90;99.90;;;;;;5043488;28;20193;-69
2021/09/30 05:51:50;;;;;;;1.67;1.50;;;8.90;99.90;;;;;;5042543;28;20248;-69
2021/09/30 05:54:16;;;;;;;2.07;1.60;;;8.90;99.90;;;;;;5043556;28;20183;-67
2021/09/30 05:56:42;;;;;;;3.27;1.60;;;8.90;99.90;;;;;;5042937;28;20181;-67
2021/09/30 05:59:08;;;;;;;3.10;1.60;;;8.90;99.90;;;;;;5043810;28;20185;-67
2021/09/30 06:12:34;;;;;;;3.43;1.60;;;8.90;99.90;;;;;;5042687;28;20233;-69
2021/09/30 06:15:01;;;;;;;2.57;1.73;;;9.00;99.90;;;;;;5043337;28;20182;-68
2021/09/30 06:17:28;;;;;;;3.07;1.77;;;9.20;99.90;;;;;;5043082;28;20633;-68
2021/09/30 06:19:54;;;;;;;3.53;1.63;;;9.30;99.90;;;;;;5043187;28;20200;-68
2021/09/30 06:22:19;;;;;;;3.53;1.87;;;9.40;99.90;;;;;;5042660;28;20839;-68
2021/09/30 06:24:45;;;;;;;1.83;1.50;;;9.50;99.90;;;;;;5043207;28;20190;-68
2021/09/30 06:27:11;;;;;;;2.20;1.67;;;9.50;99.90;;;;;;5043113;28;20685;-66
2021/09/30 06:29:36;;;;;;;1.87;1.60;;;9.50;99.90;;;;;;5042710;28;20293;-66
2021/09/30 06:32:02;;;;;;;3.70;1.90;;;9.60;99.90;;;;;;5041994;28;20198;-68
2021/09/30 06:34:28;;;;;;;3.03;1.57;;;9.60;99.90;;;;;;5043286;28;20218;-69
2021/09/30 06:36:54;;;;;;;4.03;1.67;;;9.70;99.90;;;;;;5043361;28;20261;-69
2021/09/30 06:39:20;;;;;;;1.93;1.40;;;9.70;99.90;;;;;;5042869;28;20968;-67
2021/09/30 06:41:45;;;;;;;3.57;1.37;;;9.70;99.90;;;;;;5042297;28;20229;-66
2021/09/30 06:44:11;;;;;;;4.40;1.53;;;9.80;99.90;;;;;;5043018;28;20186;-68
2021/09/30 06:46:37;;;;;;;2.43;1.33;;;9.90;99.90;;;;;;5043114;28;20232;-66
2021/09/30 06:49:03;;;;;;;2.10;1.50;;;9.90;99.90;;;;;;5042871;28;20220;-70
2021/09/30 06:51:28;;;;;;;2.63;1.60;;;9.90;99.90;;;;;;5042415;28;20263;-67
2021/09/30 06:53:54;;;;;;;3.17;1.40;;;10.00;99.90;;;;;;5042871;28;20183;-67
2021/09/30 06:56:22;;;;;;;3.30;1.70;;;10.10;99.90;;;;;;5043340;28;20220;-71
2021/09/30 06:58:47;;;;;;;2.33;1.43;;;10.10;99.90;;;;;;5042870;28;20186;-68
2021/09/30 07:01:16;;;;;;;4.93;1.87;;;10.20;99.90;;;;;;5042967;28;20206;-66
2021/09/30 07:03:42;;;;;;;2.83;1.87;;;10.20;99.90;;;;;;5041937;28;20182;-66
2021/09/30 07:06:07;;;;;;;2.70;1.47;;;10.30;99.90;;;;;;5042228;28;20201;-69
2021/09/30 07:08:33;;;;;;;2.77;1.50;;;10.40;99.90;;;;;;5043648;28;20187;-67
2021/09/30 07:10:59;;;;;;;2.67;1.23;;;10.50;99.90;;;;;;5046844;28;20224;-66
2021/09/30 07:13:25;;;;;;;1.40;1.30;;;10.50;99.90;;;;;;5045574;28;20183;-68
2021/09/30 07:15:52;;;;;;;2.43;1.57;;;10.60;99.90;;;;;;5046690;28;20515;-69
2021/09/30 07:18:19;;;;;;;2.90;1.60;;;10.70;99.90;;;;;;5046415;28;20186;-67
2021/09/30 07:20:50;;;;;;;1.70;1.40;;;10.70;99.90;;;;;;5046359;28;20214;-64
2021/09/30 07:23:16;;;;;;;1.93;1.43;;;10.70;99.90;;;;;;5038422;28;20195;-70
2021/09/30 07:25:42;;;;;;;2.23;1.60;;;10.80;99.90;;;;;;5046547;28;20193;-68
2021/09/30 07:28:07;;;;;;;4.73;1.50;;;11.00;99.90;;;;;;5045391;28;20190;-65
2021/09/30 07:30:33;;;;;;;2.63;1.40;;;11.00;99.90;;;;;;5046157;28;20229;-68
2021/09/30 07:33:00;;;;;;;3.90;1.70;;;11.10;99.90;;;;;;5045597;28;20544;-67
2021/09/30 07:35:26;;;;;;;2.13;1.40;;;11.10;99.90;;;;;;5046460;28;20190;-65
2021/09/30 07:37:55;;;;;;;2.47;1.30;;;11.20;99.90;;;;;;5046304;28;20546;-65
2021/09/30 07:40:22;;;;;;;3.47;1.60;;;11.20;99.90;;;;;;5045263;28;20605;-68
2021/09/30 07:42:48;;;;;;;3.07;1.53;;;11.30;99.90;;;;;;5044116;28;20190;-69
2021/09/30 07:45:14;;;;;;;2.60;1.40;;;11.40;99.90;;;;;;5045402;28;20869;-69
2021/09/30 07:47:39;;;;;;;2.80;1.30;;;11.50;99.90;;;;;;5044509;28;20669;-69
2021/09/30 07:50:05;;;;;;;2.70;1.60;;;11.50;99.90;;;;;;5046332;28;20214;-71
2021/09/30 07:52:32;;;;;;;1.70;1.47;;;11.60;99.90;;;;;;5045645;28;20202;-68
2021/09/30 07:55:00;;;;;;;2.50;1.40;;;11.70;99.90;;;;;;5046021;28;20911;-67
2021/09/30 07:57:26;;;;;;;2.53;1.40;;;11.70;99.90;;;;;;5045603;28;20271;-70
2021/09/30 07:59:51;;;;;;;2.38;1.60;;;11.70;99.90;;;;;;5046128;28;20192;-67
2021/09/30 08:02:17;;;;;;;3.92;2.30;;;11.80;99.90;;;;;;5045393;28;20217;-66
2021/09/30 08:04:42;;;;;;;4.43;1.50;;;11.90;99.90;;;;;;5046089;28;20196;-69
2021/09/30 08:07:08;;;;;;;3.28;1.33;;;12.00;99.90;;;;;;5045726;28;20919;-70
2021/09/30 08:09:34;;;;;;;2.63;1.40;;;12.00;99.90;;;;;;5046351;28;20210;-68
2021/09/30 08:12:00;;;;;;;2.80;1.60;;;12.10;99.90;;;;;;5045015;28;20572;-68
2021/09/30 08:14:26;;;;;;;2.17;1.58;;;12.30;99.90;;;;;;5045569;28;20547;-69
2021/09/30 08:16:52;;;;;;;5.03;1.48;;;12.30;99.90;;;;;;5046332;28;20188;-70
2021/09/30 08:19:18;;;;;;;2.35;1.48;;;12.30;99.90;;;;;;5045483;28;20190;-70
2021/09/30 08:21:46;;;;;;;2.38;1.38;;;12.40;99.90;;;;;;5044960;28;20640;-70
2021/09/30 08:24:13;;;;;;;2.58;1.67;;;12.40;99.90;;;;;;5045523;28;20265;-67
2021/09/30 08:26:38;;;;;;;3.05;1.58;;;12.40;99.90;;;;;;5045561;28;20236;-68
2021/09/30 08:29:04;;;;;;;2.33;1.30;;;12.50;99.90;;;;;;5043930;28;20202;-69
2021/09/30 08:31:30;;;;;;;4.88;1.80;;;12.50;99.90;;;;;;5044495;28;20217;-68
2021/09/30 08:33:58;;;;;;;2.08;1.02;;;12.60;99.90;;;;;;5045258;28;20183;-70
2021/09/30 08:36:25;;;;;;;3.55;1.30;;;12.60;99.90;;;;;;5045613;28;20206;-67
2021/09/30 08:38:50;;;;;;;6.13;2.03;;;12.70;99.90;;;;;;5045054;28;20277;-69
2021/09/30 08:41:17;;;;;;;3.35;1.10;;;12.60;99.90;;;;;;5045094;28;20289;-66
2021/09/30 08:43:43;;;;;;;1.50;1.05;;;12.60;99.90;;;;;;5044151;28;20656;-68
2021/09/30 08:46:09;;;;;;;10.93;1.77;;;12.70;99.90;;;;;;5045492;28;20235;-69
2021/09/30 08:48:35;;;;;;;3.88;1.42;;;12.80;99.90;;;;;;5045084;28;20384;-71
2021/09/30 08:51:02;;;;;;;3.88;1.38;;;12.90;99.90;;;;;;5045163;28;20217;-65
2021/09/30 08:53:28;;;;;;;3.33;1.45;;;12.90;99.90;;;;;;5044626;28;20236;-69
2021/09/30 08:55:54;;;;;;;2.95;1.10;;;13.00;99.90;;;;;;5045310;28;20522;-68
2021/09/30 08:58:19;;;;;;;2.95;1.20;;;13.10;99.90;;;;;;5045313;28;20178;-68
2021/09/30 09:00:46;;;;;;;3.05;1.20;;;13.10;99.90;;;;;;5045344;28;20271;-69
2021/09/30 09:03:12;;;;;;;2.95;1.10;;;13.20;99.90;;;;;;5044432;28;20182;-68
2021/09/30 09:05:40;;;;;;;1.65;1.35;;;13.40;99.90;;;;;;5045412;28;20197;-67
2021/09/30 09:08:08;;;;;;;3.53;1.15;;;13.30;99.90;;;;;;5045255;28;20656;-65
2021/09/30 09:10:41;;;;;;;3.13;1.00;;;13.40;99.90;;;;;;5045542;28;20249;-71
2021/09/30 09:13:14;;;;;;;3.95;1.38;;;13.40;99.90;;;;;;5044797;28;20174;-67
2021/09/30 09:15:42;;;;;;;4.72;1.90;;;13.50;99.90;;;;;;5045449;28;20685;-69
2021/09/30 09:18:19;;;;;;;2.40;1.13;;;13.70;99.90;;;;;;5044538;28;20185;-66
2021/09/30 09:21:06;;;;;;;2.38;1.00;;;13.70;99.90;;;;;;5044840;28;20237;-67
2021/09/30 09:23:38;;;;;;;2.45;1.17;;;13.90;99.90;;;;;;5042059;28;20313;-67
2021/09/30 09:26:32;;;;;;;4.20;1.42;;;13.90;99.90;;;;;;5044885;28;20522;-68
2021/09/30 09:29:09;;;;;;;2.42;0.98;;;14.00;99.90;;;;;;5043797;28;20704;-68
2021/09/30 09:31:48;;;;;;;3.92;1.17;;;14.10;99.90;;;;;;5044166;28;20604;-63
2021/09/30 09:34:36;;;;;;;1.92;1.02;;;14.10;99.90;;;;;;5044764;28;20182;-66
2021/09/30 09:37:38;;;;;;;5.60;1.08;;;14.30;99.90;;;;;;5044333;28;20602;-68
2021/09/30 09:40:18;;;;;;;1.95;1.00;;;14.60;99.90;;;;;;5043039;28;20692;-65
2021/09/30 09:42:45;;;;;;;3.55;1.20;;;14.80;99.90;;;;;;5043291;28;20568;-67
2021/09/30 09:45:13;;;;;;;2.40;0.90;;;15.20;99.90;;;;;;5044880;28;20549;-66
2021/09/30 09:47:44;;;;;;;2.95;0.90;;;15.50;99.90;;;;;;5043875;28;20280;-66
2021/09/30 09:50:12;;;;;;;1.95;1.00;;;15.80;99.90;;;;;;5044182;28;20218;-67
2021/09/30 09:52:59;;;;;;;2.17;0.98;;;15.90;99.90;;;;;;5044415;28;20233;-67
2021/09/30 09:55:35;;;;;;;3.10;1.30;;;15.80;99.90;;;;;;5045051;28;20177;-65
2021/09/30 09:58:10;;;;;;;2.90;1.35;;;15.60;99.90;;;;;;5044788;28;20327;-67
2021/09/30 10:00:56;;;;;;;1.92;0.90;;;15.30;99.90;;;;;;5044455;28;20251;-66
2021/09/30 10:03:28;;;;;;;2.25;0.80;;;15.40;99.90;;;;;;5044107;28;20448;-66
2021/09/30 10:05:55;;;;;;;3.35;0.85;;;15.70;99.90;;;;;;5044839;28;20178;-68
2021/09/30 10:08:21;;;;;;;2.38;0.80;;;15.70;99.90;;;;;;5044616;28;20709;-69
2021/09/30 10:10:48;;;;;;;3.50;0.93;;;15.70;99.90;;;;;;5044103;28;20305;-68
2021/09/30 10:13:16;;;;;;;5.82;0.90;;;15.90;99.90;;;;;;5043898;28;21048;-65
2021/09/30 10:15:43;;;;;;;3.85;0.95;;;16.30;99.90;;;;;;5044559;28;20174;-67
2021/09/30 10:18:10;;;;;;;3.20;0.90;;;16.30;99.90;;;;;;5045147;28;20175;-68
2021/09/30 10:20:37;;;;;;;2.40;0.60;;;16.20;99.90;;;;;;5044814;28;20201;-69
2021/09/30 10:23:07;;;;;;;2.42;0.82;;;16.20;99.90;;;;;;5044019;28;20448;-68
2021/09/30 10:25:36;;;;;;;3.65;0.80;;;16.20;99.90;;;;;;5044804;28;20182;-66
2021/09/30 10:28:03;;;;;;;4.10;0.98;;;16.00;99.90;;;;;;5043103;28;20640;-67
2021/09/30 10:30:37;;;;;;;3.85;0.90;;;16.00;99.90;;;;;;5044166;28;20564;-67
2021/09/30 10:33:05;;;;;;;2.83;0.70;;;16.00;99.90;;;;;;5043477;28;20181;-66
2021/09/30 10:35:37;;;;;;;1.65;0.68;;;16.00;99.90;;;;;;5043014;28;20301;-67
2021/09/30 10:38:22;;;;;;;2.90;0.60;;;16.10;99.90;;;;;;5044238;28;20915;-66
2021/09/30 10:41:06;;;;;;;3.60;0.90;;;16.10;99.90;;;;;;5044015;28;20209;-66
2021/09/30 10:43:44;;;;;;;3.33;0.60;;;16.10;99.90;;;;;;5044873;28;20530;-68
2021/09/30 10:46:22;;;;;;;3.08;1.10;;;16.00;99.90;;;;;;5047444;28;20549;-68
2021/09/30 10:48:50;;;;;;;1.67;0.93;;;15.80;99.90;;;;;;5047997;28;20225;-66
2021/09/30 10:51:17;;;;;;;2.58;0.68;;;15.70;99.90;;;;;;5047541;28;20612;-69
2021/09/30 10:53:46;;;;;;;2.20;0.60;;;15.90;99.90;;;;;;5047002;28;20266;-67
2021/09/30 10:56:27;;;;;;;3.42;0.70;;;16.10;99.90;;;;;;5047663;28;20918;-68
2021/09/30 10:59:21;;;;;;;2.00;0.70;;;16.00;99.90;;;;;;5045729;28;20181;-68
2021/09/30 11:01:46;;;;;;;1.70;1.08;;;15.70;99.90;;;;;;5041752;28;20678;-69
2021/09/30 11:04:17;;;;;;;2.28;0.70;;;15.40;99.90;;;;;;5047126;28;20273;-67
2021/09/30 11:07:02;;;;;;;3.55;0.80;;;15.30;99.90;;;;;;5047470;28;20197;-65
2021/09/30 11:09:28;;;;;;;3.15;0.80;;;15.20;99.90;;;;;;5046742;28;20577;-67
2021/09/30 11:12:11;;;;;;;2.42;0.90;;;15.10;99.90;;;;;;5045291;28;20201;-66
2021/09/30 11:14:53;;;;;;;3.28;0.77;;;15.10;99.90;;;;;;5046589;28;20365;-65
2021/09/30 11:17:35;;;;;;;2.50;0.65;;;15.20;99.90;;;;;;5047025;28;20236;-69
2021/09/30 11:20:32;;;;;;;4.05;0.88;;;15.20;99.90;;;;;;5046818;28;20209;-66
2021/09/30 11:22:58;;;;;;;3.22;0.60;;;15.10;99.90;;;;;;5044419;28;20646;-67
2021/09/30 11:26:02;;;;;;;2.10;0.65;;;15.20;99.90;;;;;;5045371;28;20277;-68
2021/09/30 11:28:27;;;;;;;2.10;0.80;;;15.40;99.90;;;;;;5046555;28;20182;-68
2021/09/30 11:31:24;;;;;;;1.30;0.50;;;15.70;99.90;;;;;;5046220;28;20586;-67
2021/09/30 11:33:56;;;;;;;1.58;0.63;;;16.00;99.90;;;;;;5046429;28;20496;-65
2021/09/30 11:36:33;;;;;;;2.38;0.65;;;16.00;99.90;;;;;;5041356;28;20186;-67
2021/09/30 11:38:59;;;;;;;1.27;0.52;;;15.90;99.90;;;;;;5046280;28;20903;-67
2021/09/30 11:41:29;;;;;;;5.05;0.88;;;16.00;99.90;;;;;;5046418;28;20212;-69
2021/09/30 11:43:55;;;;;;;2.40;0.60;;;16.20;99.90;;;;;;5045352;28;20696;-66
2021/09/30 11:46:32;;;;;;;2.17;0.70;;;16.30;99.90;;;;;;5047299;28;20212;-67
2021/09/30 11:49:10;;;;;;;2.28;0.73;;;16.60;99.90;;;;;;5047178;28;20204;-66
2021/09/30 11:51:40;;;;;;;2.03;0.80;;;16.70;99.90;;;;;;5046808;28;20244;-67
2021/09/30 11:54:08;;;;;;;2.22;0.80;;;16.70;99.90;;;;;;5046911;28;20601;-65
2021/09/30 11:56:41;;;;;;;1.17;0.50;;;16.50;99.90;;;;;;5047695;28;20546;-70
2021/09/30 11:59:07;;;;;;;3.13;0.75;;;16.20;99.90;;;;;;5047079;28;20182;-65
2021/09/30 12:01:44;;;;;;;2.70;0.73;;;16.20;99.90;;;;;;5046123;28;20247;-67
2021/09/30 12:04:11;;;;;;;3.72;0.85;;;16.20;99.90;;;;;;5045061;28;20427;-67
2021/09/30 12:06:45;;;;;;;2.85;0.90;;;16.00;99.90;;;;;;5046698;28;20269;-68
2021/09/30 12:09:13;;;;;;;4.70;1.00;;;15.90;99.90;;;;;;5045798;28;20292;-68
2021/09/30 12:12:03;;;;;;;2.75;1.02;;;15.70;99.90;;;;;;5045633;28;20302;-66
2021/09/30 12:14:39;;;;;;;1.48;0.60;;;15.40;99.90;;;;;;5044345;28;20178;-67
2021/09/30 12:17:08;;;;;;;3.28;0.70;;;15.60;99.90;;;;;;5042872;28;20251;-67
2021/09/30 12:19:39;;;;;;;1.95;1.00;;;15.70;99.90;;;;;;5044760;28;20543;-69
2021/09/30 12:22:11;;;;;;;2.47;0.70;;;15.70;99.90;;;;;;5044984;28;20205;-67
2021/09/30 12:24:44;;;;;;;2.88;1.10;;;15.60;99.90;;;;;;5043825;28;21143;-66
2021/09/30 12:27:11;;;;;;;3.17;0.82;;;15.70;99.90;;;;;;5045602;28;20190;-66
2021/09/30 12:29:45;;;;;;;3.25;1.00;;;15.90;99.90;;;;;;5044902;28;20581;-68
2021/09/30 12:32:17;;;;;;;2.78;0.70;;;16.00;99.90;;;;;;5044141;28;20202;-68
2021/09/30 12:34:56;;;;;;;3.00;0.80;;;16.30;99.90;;;;;;5045303;28;20178;-69
2021/09/30 12:37:26;;;;;;;2.78;0.98;;;16.30;99.90;;;;;;5044361;28;20177;-66
2021/09/30 12:40:01;;;;;;;1.98;0.50;;;16.30;99.90;;;;;;5044917;28;20265;-69
2021/09/30 12:42:28;;;;;;;2.38;0.70;;;16.30;99.90;;;;;;5044401;28;20252;-67
2021/09/30 12:44:54;;;;;;;2.13;0.50;;;16.20;99.90;;;;;;5044889;28;20307;-69
2021/09/30 12:47:42;;;;;;;2.63;0.50;;;15.90;99.90;;;;;;5043335;28;20661;-68
2021/09/30 12:50:13;;;;;;;1.75;0.70;;;15.60;99.90;;;;;;5044523;28;20190;-70
2021/09/30 12:52:40;;;;;;;1.77;0.60;;;15.50;99.90;;;;;;5044376;28;20170;-69
2021/09/30 12:55:17;;;;;;;2.83;0.70;;;15.50;99.90;;;;;;5044591;28;20235;-70
2021/09/30 12:57:43;;;;;;;1.23;0.50;;;15.50;99.90;;;;;;5045202;28;20197;-69
2021/09/30 13:00:17;;;;;;;1.98;0.57;;;15.50;99.90;;;;;;5043356;28;20654;-69
2021/09/30 13:02:44;;;;;;;4.00;0.70;;;15.60;99.90;;;;;;5043879;28;20182;-66
2021/09/30 13:05:10;;;;;;;2.08;0.50;;;15.60;99.90;;;;;;5044567;28;20198;-67
2021/09/30 13:07:46;;;;;;;1.42;0.52;;;15.70;99.90;;;;;;5043885;28;20991;-66
2021/09/30 13:10:15;;;;;;;1.25;0.50;;;15.50;99.90;;;;;;5044599;28;20249;-66
2021/09/30 13:13:07;;;;;;;1.20;0.47;;;15.60;99.90;;;;;;5044004;28;20243;-66
2021/09/30 13:15:41;;;;;;;0.70;0.60;;;15.50;99.90;;;;;;5043999;28;20171;-66
2021/09/30 13:18:10;;;;;;;2.53;0.80;;;15.20;99.90;;;;;;5044115;28;20280;-68
2021/09/30 13:20:36;;;;;;;1.15;0.60;;;15.10;99.90;;;;;;5044030;28;20205;-67
2021/09/30 13:23:02;;;;;;;2.38;0.68;;;15.30;99.90;;;;;;5044046;28;20584;-67
2021/09/30 13:25:27;;;;;;;3.55;0.98;;;15.60;99.90;;;;;;5044287;28;20182;-68
2021/09/30 13:27:54;;;;;;;2.03;0.95;;;15.80;99.90;;;;;;5044466;28;20646;-67
2021/09/30 13:30:23;;;;;;;3.13;1.05;;;15.80;99.90;;;;;;5043920;28;20202;-67
2021/09/30 13:32:51;;;;;;;3.22;1.40;;;15.70;99.90;;;;;;5044597;28;20247;-68
2021/09/30 13:35:17;;;;;;;2.33;0.60;;;15.80;99.90;;;;;;5045038;28;20193;-65
2021/09/30 13:37:43;;;;;;;2.78;1.00;;;15.80;99.90;;;;;;5045426;28;20217;-70
2021/09/30 13:40:10;;;;;;;2.85;0.57;;;15.80;99.90;;;;;;5044970;28;20189;-66
2021/09/30 13:42:37;;;;;;;4.13;1.00;;;15.80;99.90;;;;;;5044782;28;20206;-65
2021/09/30 13:45:06;;;;;;;1.70;0.50;;;15.90;99.90;;;;;;5045826;28;20666;-65
2021/09/30 13:47:32;;;;;;;4.15;0.73;;;16.20;99.90;;;;;;5045531;28;20256;-68
2021/09/30 13:49:58;;;;;;;1.40;0.60;;;16.30;99.90;;;;;;5044782;28;20608;-67
2021/09/30 13:52:25;;;;;;;3.22;0.65;;;16.30;99.90;;;;;;5045211;28;20198;-68
2021/09/30 13:54:50;;;;;;;1.77;0.70;;;16.00;99.90;;;;;;5045819;28;20217;-66
2021/09/30 13:57:16;;;;;;;1.90;0.82;;;15.90;99.90;;;;;;5045412;28;20218;-66
2021/09/30 13:59:43;;;;;;;3.03;0.75;;;15.70;99.90;;;;;;5045529;28;20209;-66
2021/09/30 14:02:09;;;;;;;2.28;0.70;;;15.50;99.90;;;;;;5044618;28;20707;-66
2021/09/30 14:04:35;;;;;;;2.40;0.60;;;15.60;99.90;;;;;;5045793;28;20227;-69
2021/09/30 14:07:06;;;;;;;3.50;0.80;;;15.70;99.90;;;;;;5046224;28;20213;-66
2021/09/30 14:09:33;;;;;;;2.47;0.60;;;15.80;99.90;;;;;;5045405;28;20197;-67
2021/09/30 14:12:00;;;;;;;2.17;0.60;;;15.90;99.90;;;;;;5045101;28;20233;-67
2021/09/30 14:14:25;;;;;;;4.78;0.60;;;15.90;99.90;;;;;;5044278;28;20175;-69
2021/09/30 14:16:51;;;;;;;1.33;0.60;;;16.00;99.90;;;;;;5040483;28;20178;-65
2021/09/30 14:19:18;;;;;;;3.60;1.00;;;15.90;99.90;;;;;;5048418;28;20269;-68
2021/09/30 14:21:45;;;;;;;2.05;0.70;;;15.60;99.90;;;;;;5048758;28;20201;-66
2021/09/30 14:24:10;;;;;;;1.85;0.55;;;15.30;99.90;;;;;;5049855;28;20182;-66
2021/09/30 14:26:37;;;;;;;5.30;1.20;;;15.30;99.90;;;;;;5050239;28;20182;-68
2021/09/30 14:29:03;;;;;;;1.63;0.40;;;15.40;99.90;;;;;;5048717;28;20193;-69
2021/09/30 14:31:28;;;;;;;1.08;0.65;;;15.50;99.90;;;;;;5048452;28;20566;-66
2021/09/30 14:33:54;;;;;;;3.47;1.67;;;15.60;99.90;;;;;;5048972;28;20216;-66
2021/09/30 14:36:20;;;;;;;2.22;0.60;;;15.70;99.90;;;;;;5049699;28;20291;-67
2021/09/30 14:38:45;;;;;;;3.30;0.70;;;15.70;99.90;;;;;;5048705;28;20215;-66
2021/09/30 14:41:11;;;;;;;2.92;1.05;;;15.80;99.90;;;;;;5048751;28;20307;-64
2021/09/30 14:43:37;;;;;;;2.42;0.63;;;15.90;99.90;;;;;;5048201;28;20185;-69
2021/09/30 14:46:09;;;;;;;2.33;0.75;;;15.90;99.90;;;;;;5048412;28;20554;-68
2021/09/30 14:48:38;;;;;;;2.63;0.90;;;16.00;99.90;;;;;;5047968;28;20198;-65
2021/09/30 14:51:08;;;;;;;10.00;0.90;;;16.10;99.90;;;;;;5048028;28;20590;-66
2021/09/30 14:53:34;;;;;;;3.50;0.73;;;16.00;99.90;;;;;;5047247;28;20175;-70
2021/09/30 14:56:02;;;;;;;2.50;0.82;;;15.90;99.90;;;;;;5048136;28;20174;-68
2021/09/30 14:58:27;;;;;;;2.33;0.82;;;15.80;99.90;;;;;;5048442;28;20531;-68
2021/09/30 15:00:53;;;;;;;2.40;0.50;;;15.70;99.90;;;;;;5047678;28;20209;-66
2021/09/30 15:03:18;;;;;;;1.85;0.70;;;15.70;99.90;;;;;;5047538;28;20730;-66
2021/09/30 15:05:44;;;;;;;1.52;0.90;;;15.70;99.90;;;;;;5047678;28;20541;-69
2021/09/30 15:08:11;;;;;;;4.03;0.75;;;15.50;99.90;;;;;;5047416;28;20205;-67
2021/09/30 15:10:37;;;;;;;3.15;0.80;;;15.40;99.90;;;;;;5046579;28;20206;-69
2021/09/30 15:13:03;;;;;;;0.65;0.40;;;15.30;99.90;;;;;;5046478;28;20178;-66
2021/09/30 15:15:29;;;;;;;2.55;0.70;;;15.30;99.90;;;;;;5047069;28;20638;-69
2021/09/30 15:18:01;;;;;;;3.97;0.60;;;15.30;99.90;;;;;;5047259;28;20175;-68
2021/09/30 15:23:08;;;;;;;2.70;0.80;;;15.00;99.90;;;;;;5046116;28;20208;-68
2021/09/30 15:25:36;;;;;;;3.70;0.60;;;14.80;99.90;;;;;;5046580;28;20626;-70
2021/09/30 15:28:04;;;;;;;2.00;0.50;;;14.70;99.90;;;;;;5046550;28;20186;-66
2021/09/30 15:30:30;;;;;;;2.08;0.75;;;14.70;99.90;;;;;;5045422;28;20634;-66
2021/09/30 15:32:55;;;;;;;1.85;0.50;;;14.80;99.90;;;;;;5046039;28;20680;-68
2021/09/30 15:35:21;;;;;;;1.95;0.40;;;14.90;99.90;;;;;;5046927;28;20222;-70
2021/09/30 15:37:47;;;;;;;2.72;0.50;;;15.00;99.90;;;;;;5047063;28;20277;-69
2021/09/30 15:40:13;;;;;;;2.05;0.40;;;15.00;99.90;;;;;;5046213;28;20635;-67
2021/09/30 15:42:39;;;;;;;0.85;0.50;;;14.90;99.90;;;;;;5046711;28;20638;-69
2021/09/30 15:45:05;;;;;;;1.17;0.50;;;14.80;99.90;;;;;;5046278;28;20184;-68
2021/09/30 15:47:30;;;;;;;1.33;0.68;;;14.70;99.90;;;;;;5047065;28;20225;-65
2021/09/30 15:49:56;;;;;;;2.75;0.90;;;14.70;99.90;;;;;;5046004;28;20241;-65
2021/09/30 15:52:22;;;;;;;1.60;0.55;;;14.60;99.90;;;;;;5046273;28;20203;-67
2021/09/30 15:54:47;;;;;;;0.77;0.45;;;14.50;99.90;;;;;;5046323;28;20183;-65